Time;durP1;ratioP1;P1;durP2;ratioP2;P2;SDS_P1;SDS_P2;PMS_P1;PMS_P2;Temp;Humidity;BMP_temperature;BMP_pressure;BME280_temperature;BME280_humidity;BME280_pressure;Samples;Min_cycle;Max_cycle;Signal;HPM_P1;HPM_P2
2023/04/13 00:01:32;;;;;;;35.00;23.20;;;;;;;8.54;100.00;99958.73;110402;1235;63316;-68
2023/04/13 00:04:03;;;;;;;31.20;19.90;;;;;;;8.51;100.00;99957.21;110443;1233;71241;-68
2023/04/13 00:06:32;;;;;;;34.40;22.70;;;;;;;8.51;100.00;99954.11;110586;1235;69815;-68
2023/04/13 00:09:01;;;;;;;35.70;22.30;;;;;;;8.49;100.00;99949.74;110420;1236;62843;-69
2023/04/13 00:11:30;;;;;;;35.10;22.40;;;;;;;8.48;100.00;99948.23;110559;1234;58256;-69
2023/04/13 00:13:59;;;;;;;31.30;21.30;;;;;;;8.45;100.00;99945.51;110376;1234;57807;-68
2023/04/13 00:16:30;;;;;;;31.50;20.20;;;;;;;8.43;100.00;99944.80;110592;1236;63497;-68
2023/04/13 00:18:59;;;;;;;32.50;20.90;;;;;;;8.47;100.00;99943.31;110444;1235;61659;-68
2023/04/13 00:21:27;;;;;;;33.00;20.20;;;;;;;8.48;100.00;99943.05;110587;1234;70443;-69
2023/04/13 00:23:56;;;;;;;27.00;18.60;;;;;;;8.49;100.00;99942.24;110581;1234;63604;-69
2023/04/13 00:26:25;;;;;;;27.20;17.60;;;;;;;8.43;100.00;99941.86;110598;1236;58238;-68
2023/04/13 00:28:54;;;;;;;29.20;19.60;;;;;;;8.46;100.00;99941.48;110361;1235;57795;-68
2023/04/13 00:31:25;;;;;;;29.20;19.40;;;;;;;8.45;100.00;99943.10;110576;1234;63574;-69
2023/04/13 00:33:54;;;;;;;31.60;20.00;;;;;;;8.42;100.00;99946.79;110384;1234;60670;-70
2023/04/13 00:36:23;;;;;;;26.80;16.50;;;;;;;8.43;100.00;99949.70;110459;1234;68505;-69
2023/04/13 00:38:53;;;;;;;33.90;19.80;;;;;;;8.41;100.00;99947.58;110548;1234;62458;-69
2023/04/13 00:41:25;;;;;;;29.70;18.90;;;;;;;8.40;100.00;99945.73;110429;1238;62062;-69
2023/04/13 00:43:54;;;;;;;27.80;19.00;;;;;;;8.40;100.00;99947.30;110381;1235;58260;-68
2023/04/13 00:46:23;;;;;;;30.60;20.30;;;;;;;8.39;100.00;99942.86;110186;1235;64735;-70
2023/04/13 00:48:54;;;;;;;27.40;18.10;;;;;;;8.40;100.00;99939.98;110437;1235;61631;-69
2023/04/13 00:51:23;;;;;;;29.50;19.00;;;;;;;8.41;100.00;99937.69;110324;1235;68203;-69
2023/04/13 00:53:52;;;;;;;28.20;18.90;;;;;;;8.40;100.00;99938.11;110292;1235;73500;-69
2023/04/13 00:56:21;;;;;;;25.40;16.90;;;;;;;8.41;100.00;99938.21;110296;1238;61496;-69
2023/04/13 00:58:50;;;;;;;26.60;18.50;;;;;;;8.40;100.00;99941.21;110245;1235;58243;-68
2023/04/13 01:01:19;;;;;;;28.90;18.30;;;;;;;8.37;100.00;99948.52;110267;1235;63012;-69
2023/04/13 01:03:48;;;;;;;33.50;19.50;;;;;;;8.37;100.00;99946.30;110209;1234;72100;-68
2023/04/13 01:06:32;;;;;;;29.10;19.60;;;;;;;8.37;100.00;99945.11;110107;1235;69639;-68
2023/04/13 01:09:10;;;;;;;30.00;20.20;;;;;;;8.38;100.00;99945.34;110142;1234;72837;-67
2023/04/13 01:11:51;;;;;;;27.20;18.20;;;;;;;8.37;100.00;99946.14;110070;1235;62608;-67
2023/04/13 01:14:39;;;;;;;28.60;19.20;;;;;;;8.37;100.00;99949.62;110078;1235;58323;-69
2023/04/13 01:17:22;;;;;;;27.20;17.90;;;;;;;8.36;100.00;99951.44;110112;1234;64749;-69
2023/04/13 01:20:00;;;;;;;33.30;19.50;;;;;;;8.35;100.00;99955.34;110309;1234;63326;-69
2023/04/13 01:22:35;;;;;;;29.60;19.20;;;;;;;8.35;100.00;99955.81;110211;1233;70812;-68
2023/04/13 01:25:22;;;;;;;26.60;16.60;;;;;;;8.35;100.00;99957.24;110197;1234;74300;-68
2023/04/13 01:28:02;;;;;;;29.50;17.40;;;;;;;8.37;100.00;99959.16;110396;1236;62364;-68
2023/04/13 01:30:34;;;;;;;24.80;17.70;;;;;;;8.34;100.00;99960.89;110130;1235;58239;-68
2023/04/13 01:33:04;;;;;;;25.70;16.00;;;;;;;8.36;100.00;99957.61;110132;1235;62992;-68
2023/04/13 01:35:37;;;;;;;27.10;16.60;;;;;;;8.40;100.00;99960.52;110139;1234;72139;-68
2023/04/13 01:38:07;;;;;;;28.80;18.00;;;;;;;8.35;100.00;99954.92;110370;1234;70773;-68
2023/04/13 01:40:39;;;;;;;25.20;17.70;;;;;;;8.34;100.00;99954.50;110122;1235;64296;-68
2023/04/13 01:43:10;;;;;;;24.40;15.20;;;;;;;8.35;100.00;99959.13;110256;1238;61205;-68
2023/04/13 01:46:12;;;;;;;29.30;18.00;;;;;;;8.32;100.00;99959.38;110245;1234;60331;-68
2023/04/13 01:49:00;;;;;;;25.70;17.30;;;;;;;8.31;100.00;99960.45;110370;1234;63333;-70
2023/04/13 01:51:34;;;;;;;25.80;16.70;;;;;;;8.33;100.00;99965.20;110476;1233;60958;-69
2023/04/13 01:54:09;;;;;;;22.90;16.00;;;;;;;8.28;100.00;99962.25;110128;1233;60781;-69
2023/04/13 01:56:39;;;;;;;24.30;16.20;;;;;;;8.28;100.00;99961.20;110109;1235;72998;-69
2023/04/13 01:59:09;;;;;;;24.40;17.10;;;;;;;8.26;100.00;99961.88;110079;1238;58291;-69
2023/04/13 02:01:39;;;;;;;27.50;18.30;;;;;;;8.25;100.00;99962.44;110260;1235;61523;-69
2023/04/13 02:04:09;;;;;;;23.40;16.70;;;;;;;8.26;100.00;99968.42;110386;1234;74097;-69
2023/04/13 02:06:41;;;;;;;29.40;17.90;;;;;;;8.26;100.00;99968.48;110284;1235;72923;-69
2023/04/13 02:09:10;;;;;;;27.10;19.10;;;;;;;8.25;100.00;99971.48;110163;1234;61427;-69
2023/04/13 02:11:39;;;;;;;25.70;17.00;;;;;;;8.22;100.00;99971.84;110235;1235;62473;-69
2023/04/13 02:14:09;;;;;;;26.30;17.30;;;;;;;8.24;100.00;99975.01;110216;1237;62984;-69
2023/04/13 02:16:38;;;;;;;27.70;16.40;;;;;;;8.28;100.00;99974.08;110330;1235;60796;-69
2023/04/13 02:19:07;;;;;;;26.50;17.50;;;;;;;8.27;100.00;99976.52;110360;1235;74410;-69
2023/04/13 02:21:37;;;;;;;26.80;16.60;;;;;;;8.29;100.00;99975.55;110288;1235;62052;-69
2023/04/13 02:24:06;;;;;;;26.20;16.20;;;;;;;8.29;100.00;99972.91;110387;1235;69703;-68
2023/04/13 02:26:36;;;;;;;28.10;17.00;;;;;;;8.30;100.00;99971.66;110393;1234;62629;-68
2023/04/13 02:29:06;;;;;;;26.80;16.80;;;;;;;8.33;100.00;99973.67;110341;1238;58340;-68
2023/04/13 02:31:35;;;;;;;28.00;17.30;;;;;;;8.34;100.00;99978.58;110368;1235;58198;-70
2023/04/13 02:34:04;;;;;;;25.70;17.00;;;;;;;8.37;100.00;99978.27;110379;1234;62912;-71
2023/04/13 02:36:33;;;;;;;29.60;18.00;;;;;;;8.35;100.00;99977.15;110365;1235;71581;-71
2023/04/13 02:39:07;;;;;;;25.90;17.10;;;;;;;8.35;100.00;99977.35;110299;1233;70886;-68
2023/04/13 02:41:36;;;;;;;28.30;17.90;;;;;;;8.36;100.00;99977.44;110378;1235;74313;-69
2023/04/13 02:44:05;;;;;;;25.80;17.20;;;;;;;8.36;100.00;99977.59;110286;1236;62467;-69
2023/04/13 02:46:42;;;;;;;26.80;17.60;;;;;;;8.39;100.00;99979.83;110396;1234;57756;-69
2023/04/13 02:49:15;;;;;;;28.20;17.40;;;;;;;8.34;100.00;99978.45;110405;1235;62971;-68
2023/04/13 02:51:57;;;;;;;37.80;22.00;;;;;;;8.28;100.00;99983.02;110173;1234;71437;-69
2023/04/13 02:54:53;;;;;;;29.00;17.70;;;;;;;8.23;100.00;99984.44;110284;1234;60306;-68
2023/04/13 02:57:25;;;;;;;33.30;19.70;;;;;;;8.16;100.00;99983.23;110312;1238;73864;-69
2023/04/13 02:59:54;;;;;;;31.80;19.20;;;;;;;8.14;100.00;99987.92;110271;1238;58300;-69
2023/04/13 03:02:25;;;;;;;33.40;20.70;;;;;;;8.09;100.00;99988.79;110352;1235;61289;-70
2023/04/13 03:04:55;;;;;;;29.60;18.20;;;;;;;8.13;100.00;99991.27;110467;1236;63483;-68
2023/04/13 03:07:24;;;;;;;29.00;18.20;;;;;;;8.16;100.00;99989.83;110169;1235;61648;-69
2023/04/13 03:09:54;;;;;;;32.80;20.10;;;;;;;8.15;100.00;99990.23;110400;1235;70407;-69
2023/04/13 03:12:25;;;;;;;29.20;18.80;;;;;;;8.15;100.00;99991.48;110379;1234;62975;-69
2023/04/13 03:14:54;;;;;;;28.40;17.80;;;;;;;8.14;100.00;99994.77;110504;1236;57758;-69
2023/04/13 03:17:24;;;;;;;26.30;18.10;;;;;;;8.14;100.00;99994.61;110298;1236;58301;-69
2023/04/13 03:19:53;;;;;;;28.60;18.50;;;;;;;8.13;100.00;99994.92;110411;1235;72529;-69
2023/04/13 03:22:23;;;;;;;32.60;19.60;;;;;;;8.09;100.00;99995.33;110446;1235;61225;-70
2023/04/13 03:24:51;;;;;;;33.00;19.70;;;;;;;8.04;100.00;99997.98;110288;1235;69722;-70
2023/04/13 03:27:25;;;;;;;34.00;20.20;;;;;;;8.04;100.00;100000.45;110329;1234;62913;-69
2023/04/13 03:29:54;;;;;;;29.60;19.30;;;;;;;7.97;100.00;99998.66;110393;1238;57834;-69
2023/04/13 03:32:24;;;;;;;34.50;21.10;;;;;;;7.97;100.00;99998.48;110641;1236;58156;-69
2023/04/13 03:34:58;;;;;;;31.90;20.10;;;;;;;8.00;100.00;99995.31;110376;1235;72254;-69
2023/04/13 03:37:28;;;;;;;29.50;19.90;;;;;;;8.05;100.00;99996.36;110309;1235;71174;-69
2023/04/13 03:40:00;;;;;;;28.10;19.80;;;;;;;8.09;100.00;99992.77;110319;1234;61727;-68
2023/04/13 03:42:30;;;;;;;35.80;21.80;;;;;;;8.11;100.00;99993.52;110310;1235;63258;-69
2023/04/13 03:45:00;;;;;;;30.30;19.90;;;;;;;8.10;100.00;99997.41;110395;1238;62863;-69
2023/04/13 03:47:28;;;;;;;33.30;20.20;;;;;;;8.13;100.00;99999.41;110107;1235;61580;-69
2023/04/13 03:49:57;;;;;;;32.50;20.20;;;;;;;8.12;100.00;100005.36;110239;1235;75097;-68
2023/04/13 03:52:27;;;;;;;32.10;21.00;;;;;;;8.14;100.00;100008.73;110311;1236;62144;-69
2023/04/13 03:54:59;;;;;;;30.80;19.30;;;;;;;8.15;100.00;100009.67;110264;1235;70428;-71
2023/04/13 03:57:30;;;;;;;33.40;20.60;;;;;;;8.20;100.00;100011.20;110125;1234;62359;-69
2023/04/13 03:59:59;;;;;;;32.00;19.70;;;;;;;8.24;100.00;100013.04;110114;1235;58253;-68
2023/04/13 04:02:49;;;;;;;34.40;20.00;;;;;;;8.26;100.00;100020.16;110291;1235;57861;-68
2023/04/13 04:05:23;;;;;;;34.30;20.70;;;;;;;8.31;100.00;100029.36;110269;1235;74341;-69
2023/04/13 04:07:58;;;;;;;35.20;20.20;;;;;;;8.25;100.00;100034.42;110253;1235;72613;-69
2023/04/13 04:10:27;;;;;;;29.90;18.80;;;;;;;8.21;100.00;100035.05;110197;1238;60313;-70
2023/04/13 04:12:57;;;;;;;35.10;20.10;;;;;;;8.20;100.00;100038.40;110139;1235;63170;-68
2023/04/13 04:15:26;;;;;;;32.90;20.30;;;;;;;8.13;100.00;100042.27;110216;1238;58617;-69
2023/04/13 04:18:00;;;;;;;39.10;22.40;;;;;;;8.12;100.00;100043.73;110077;1235;61154;-68
2023/04/13 04:20:29;;;;;;;36.90;21.90;;;;;;;8.18;100.00;100042.41;110281;1235;74701;-68
2023/04/13 04:23:00;;;;;;;35.20;21.60;;;;;;;8.23;100.00;100045.86;110419;1235;72793;-68
2023/04/13 04:25:32;;;;;;;30.70;19.80;;;;;;;8.29;100.00;100049.74;110309;1235;70867;-68
2023/04/13 04:28:01;;;;;;;30.40;19.80;;;;;;;8.34;100.00;100054.42;110140;1235;73774;-69
2023/04/13 04:30:32;;;;;;;29.80;19.10;;;;;;;8.39;100.00;100055.51;110404;1237;57861;-68
2023/04/13 04:33:02;;;;;;;27.50;17.50;;;;;;;8.43;100.00;100060.68;110335;1235;61284;-68
2023/04/13 04:35:34;;;;;;;27.90;18.30;;;;;;;8.46;100.00;100061.39;110311;1238;64364;-69
2023/04/13 04:38:04;;;;;;;24.90;17.10;;;;;;;8.48;100.00;100068.70;110319;1235;72121;-68
2023/04/13 04:40:34;;;;;;;27.30;17.90;;;;;;;8.46;100.00;100065.36;110316;1235;60296;-69
2023/04/13 04:43:05;;;;;;;26.80;16.60;;;;;;;8.51;100.00;100066.42;110267;1238;73860;-68
2023/04/13 04:45:45;;;;;;;28.30;15.30;;;;;;;8.54;100.00;100070.33;110302;1238;58308;-69
2023/04/13 04:48:15;;;;;;;29.80;17.90;;;;;;;8.56;100.00;100067.96;110146;1234;59898;-69
2023/04/13 04:50:45;;;;;;;25.50;16.50;;;;;;;8.57;100.00;100071.66;110319;1237;64747;-69
2023/04/13 04:53:15;;;;;;;23.00;16.00;;;;;;;8.59;100.00;100068.60;110299;1235;71330;-69
2023/04/13 04:55:45;;;;;;;27.90;16.80;;;;;;;8.62;100.00;100072.88;110148;1239;59786;-68
2023/04/13 04:58:23;;;;;;;27.30;16.90;;;;;;;8.66;100.00;100075.20;110128;1238;74018;-70
2023/04/13 05:00:55;;;;;;;27.00;17.20;;;;;;;8.64;100.00;100076.02;109961;1235;58322;-68
2023/04/13 05:03:24;;;;;;;27.10;17.10;;;;;;;8.64;100.00;100074.12;110176;1238;57838;-69
2023/04/13 05:05:59;;;;;;;29.80;18.70;;;;;;;8.67;100.00;100079.78;110161;1235;73491;-69
2023/04/13 05:08:30;;;;;;;24.10;17.70;;;;;;;8.68;100.00;100084.02;110278;1238;61339;-69
2023/04/13 05:11:04;;;;;;;31.00;19.30;;;;;;;8.73;100.00;100084.73;110309;1235;70499;-69
2023/04/13 05:13:33;;;;;;;30.20;17.90;;;;;;;8.73;100.00;100088.33;110295;1235;64561;-69
2023/04/13 05:16:10;;;;;;;29.80;18.00;;;;;;;8.78;100.00;100089.18;110349;1239;58261;-68
2023/04/13 05:18:45;;;;;;;28.30;16.80;;;;;;;8.81;100.00;100091.91;110274;1238;57742;-69
2023/04/13 05:21:55;;;;;;;28.00;18.00;;;;;;;8.83;100.00;100094.42;110316;1235;74481;-69
2023/04/13 05:24:24;;;;;;;26.10;16.90;;;;;;;8.84;100.00;100093.66;110272;1238;62154;-68
2023/04/13 05:26:55;;;;;;;28.20;17.50;;;;;;;8.87;100.00;100092.03;110260;1235;70356;-69
2023/04/13 05:29:24;;;;;;;27.00;17.60;;;;;;;8.89;100.00;100092.89;110265;1238;64241;-69
2023/04/13 05:31:53;;;;;;;25.60;16.30;;;;;;;8.93;100.00;100093.64;110250;1238;61471;-69
2023/04/13 05:34:22;;;;;;;22.00;14.90;;;;;;;8.93;100.00;100095.90;110322;1235;61078;-70
2023/04/13 05:37:05;;;;;;;27.20;16.50;;;;;;;8.95;100.00;100096.61;110273;1235;74702;-68
2023/04/13 05:39:34;;;;;;;25.30;16.50;;;;;;;8.91;100.00;100092.73;110276;1235;70858;-70
2023/04/13 05:42:02;;;;;;;27.00;17.50;;;;;;;8.98;100.00;100103.17;110262;1235;70745;-69
2023/04/13 05:44:33;;;;;;;26.70;17.00;;;;;;;9.00;100.00;100104.39;110344;1239;63757;-70
2023/04/13 05:47:02;;;;;;;26.60;16.80;;;;;;;9.01;100.00;100105.66;110353;1238;62665;-70
2023/04/13 05:49:32;;;;;;;24.60;17.20;;;;;;;9.03;100.00;100106.98;110254;1234;60811;-72
2023/04/13 05:52:02;;;;;;;24.70;16.10;;;;;;;9.04;100.00;100107.55;110286;1235;74296;-70
2023/04/13 05:54:44;;;;;;;23.50;16.10;;;;;;;9.06;100.00;100108.25;110248;1235;72439;-70
2023/04/13 05:57:13;;;;;;;23.10;15.70;;;;;;;9.07;100.00;100110.13;109981;1235;70076;-70
2023/04/13 05:59:44;;;;;;;25.70;16.20;;;;;;;9.02;100.00;100113.46;110350;1239;62814;-70
2023/04/13 06:02:14;;;;;;;23.50;14.20;;;;;;;9.10;100.00;100111.83;110349;1237;62852;-69
2023/04/13 06:04:43;;;;;;;26.20;17.10;;;;;;;9.12;100.00;100115.45;110530;1236;60312;-70
2023/04/13 06:07:15;;;;;;;27.10;16.00;;;;;;;9.15;100.00;100114.22;110417;1239;62911;-73
2023/04/13 06:09:44;;;;;;;25.00;15.60;;;;;;;9.22;100.00;100107.23;110385;1235;63510;-71
2023/04/13 06:12:12;;;;;;;22.40;14.20;;;;;;;9.27;100.00;100107.72;110159;1235;69501;-70
2023/04/13 06:14:41;;;;;;;20.10;13.90;;;;;;;9.30;100.00;100110.79;110397;1239;62424;-74
2023/04/13 06:17:10;;;;;;;23.80;15.30;;;;;;;9.35;100.00;100110.48;110278;1239;58735;-76
2023/04/13 06:19:39;;;;;;;23.40;15.50;;;;;;;9.40;100.00;100107.99;110382;1236;58769;-72
2023/04/13 06:22:08;;;;;;;27.10;15.40;;;;;;;9.45;100.00;100103.56;110201;1239;63026;-72
2023/04/13 06:24:38;;;;;;;24.10;15.80;;;;;;;9.52;100.00;100102.50;110260;1239;62076;-80
2023/04/13 06:27:08;;;;;;;20.10;14.50;;;;;;;9.60;100.00;100105.68;110084;1234;70462;-72
2023/04/13 06:29:39;;;;;;;21.40;14.50;;;;;;;9.58;100.00;100111.10;110167;1237;72428;-72
2023/04/13 06:32:10;;;;;;;20.20;14.10;;;;;;;9.70;100.00;100111.16;110167;1239;63398;-73
2023/04/13 06:34:38;;;;;;;20.50;13.70;;;;;;;9.85;100.00;100111.60;109934;1240;60339;-72
2023/04/13 06:37:08;;;;;;;16.70;12.00;;;;;;;9.93;100.00;100114.81;110186;1235;74623;-73
2023/04/13 06:39:45;;;;;;;23.90;15.20;;;;;;;9.92;100.00;100121.13;110298;1235;62109;-72
2023/04/13 06:42:14;;;;;;;21.40;15.10;;;;;;;9.92;100.00;100122.16;110383;1234;59998;-72
2023/04/13 06:45:02;;;;;;;22.40;15.10;;;;;;;10.02;100.00;100125.03;110122;1234;63260;-72
2023/04/13 06:47:41;;;;;;;22.50;15.40;;;;;;;10.07;100.00;100133.29;110156;1239;62933;-72
2023/04/13 06:50:17;;;;;;;24.50;16.00;;;;;;;10.22;100.00;100128.82;109970;1235;57735;-71
2023/04/13 06:52:47;;;;;;;21.80;15.50;;;;;;;10.34;100.00;100129.23;110069;1235;74387;-71
2023/04/13 06:55:16;;;;;;;19.20;12.90;;;;;;;10.56;100.00;100135.52;110025;1235;61261;-72
2023/04/13 06:57:45;;;;;;;20.40;14.60;;;;;;;10.70;100.00;100134.37;110231;1235;69548;-73
2023/04/13 07:00:15;;;;;;;20.90;14.20;;;;;;;10.71;100.00;100138.95;110400;1235;63665;-71
2023/04/13 07:02:57;;;;;;;19.20;13.90;;;;;;;10.69;100.00;100138.05;110439;1235;57789;-71
2023/04/13 07:05:26;;;;;;;22.00;14.80;;;;;;;10.78;100.00;100141.21;110444;1235;58372;-72
2023/04/13 07:08:00;;;;;;;34.30;19.20;;;;;;;10.85;100.00;100137.31;110277;1235;63791;-73
2023/04/13 07:10:29;;;;;;;22.60;15.60;;;;;;;10.81;100.00;100140.06;110433;1235;62573;-72
2023/04/13 07:13:00;;;;;;;26.30;16.90;;;;;;;10.93;100.00;100141.19;110419;1235;59998;-73
2023/04/13 07:15:29;;;;;;;21.80;15.00;;;;;;;11.02;100.00;100140.95;110403;1235;65088;-72
2023/04/13 07:17:58;;;;;;;19.20;15.00;;;;;;;11.16;100.00;100136.59;110317;1235;62985;-73
2023/04/13 07:20:27;;;;;;;22.00;15.50;;;;;;;11.26;99.80;100136.14;110323;1235;62152;-73
2023/04/13 07:22:56;;;;;;;19.60;14.90;;;;;;;11.25;99.92;100137.30;110354;1235;64529;-73
2023/04/13 07:25:25;;;;;;;19.90;13.60;;;;;;;11.23;100.00;100136.24;110347;1235;61627;-73
2023/04/13 07:27:54;;;;;;;20.90;15.90;;;;;;;11.33;100.00;100136.95;110349;1238;60798;-72
2023/04/13 07:30:23;;;;;;;20.40;14.70;;;;;;;11.45;100.00;100135.06;110276;1235;63264;-72
2023/04/13 07:32:53;;;;;;;21.00;14.00;;;;;;;11.48;99.76;100132.52;110083;1236;58342;-72
2023/04/13 07:35:22;;;;;;;22.40;14.40;;;;;;;11.53;99.86;100131.41;110267;1237;60533;-71
2023/04/13 07:37:51;;;;;;;19.70;14.00;;;;;;;11.68;99.06;100135.48;110274;1235;74943;-72
2023/04/13 07:40:21;;;;;;;18.80;12.80;;;;;;;11.72;98.94;100132.93;110373;1235;62760;-71
2023/04/13 07:42:52;;;;;;;17.50;11.00;;;;;;;11.70;98.15;100137.77;110256;1235;68703;-72
2023/04/13 07:45:22;;;;;;;17.60;12.70;;;;;;;11.76;97.81;100138.31;110206;1239;64635;-72
2023/04/13 07:47:53;;;;;;;17.70;11.60;;;;;;;11.75;97.18;100137.92;110103;1235;57841;-74
2023/04/13 07:50:22;;;;;;;18.40;12.70;;;;;;;11.80;97.04;100141.17;110244;1235;58323;-71
2023/04/13 07:52:51;;;;;;;18.90;13.60;;;;;;;11.92;96.36;100136.05;110104;1235;74364;-72
2023/04/13 07:55:22;;;;;;;19.70;13.30;;;;;;;12.09;97.02;100133.77;110297;1235;71241;-71
2023/04/13 07:57:51;;;;;;;22.70;14.70;;;;;;;12.24;96.96;100132.57;110309;1235;70996;-71
2023/04/13 08:00:21;;;;;;;25.80;14.80;;;;;;;12.42;96.42;100130.11;110189;1235;64719;-73
2023/04/13 08:02:53;;;;;;;16.50;11.30;;;;;;;12.58;94.97;100130.75;110318;1238;62833;-72
2023/04/13 08:05:22;;;;;;;20.40;13.30;;;;;;;12.66;92.65;100124.63;110363;1235;61563;-72
2023/04/13 08:07:52;;;;;;;17.70;12.00;;;;;;;12.57;92.78;100123.73;110135;1235;74296;-72
2023/04/13 08:10:21;;;;;;;15.60;11.00;;;;;;;12.72;92.07;100123.95;110304;1235;72570;-72
2023/04/13 08:12:49;;;;;;;15.50;8.70;;;;;;;12.91;91.41;100122.92;110381;1235;61179;-74
2023/04/13 08:15:19;;;;;;;80.10;38.80;;;;;;;12.95;88.85;100132.09;110179;1239;74531;-72
2023/04/13 08:17:47;;;;;;;17.60;11.70;;;;;;;12.89;89.48;100128.65;110118;1238;62706;-73
2023/04/13 08:20:17;;;;;;;15.60;10.80;;;;;;;13.07;88.37;100131.73;110298;1235;61126;-72
2023/04/13 08:22:46;;;;;;;10.70;8.10;;;;;;;13.13;87.45;100130.13;110231;1235;65148;-72
2023/04/13 08:25:16;;;;;;;11.90;8.80;;;;;;;13.18;87.27;100124.79;110323;1235;60930;-71
2023/04/13 08:27:45;;;;;;;14.00;10.40;;;;;;;13.28;86.79;100132.44;110300;1235;70454;-72
2023/04/13 08:30:15;;;;;;;16.10;11.40;;;;;;;13.33;86.46;100134.45;110390;1235;74560;-73
2023/04/13 08:32:52;;;;;;;14.10;10.30;;;;;;;13.31;86.55;100135.86;110243;1235;63199;-72
2023/04/13 08:35:21;;;;;;;14.20;10.40;;;;;;;13.28;86.79;100134.17;110314;1235;61702;-73
2023/04/13 08:37:52;;;;;;;16.10;11.60;;;;;;;13.03;88.40;100134.34;110325;1234;64878;-72
2023/04/13 08:40:22;;;;;;;16.00;11.10;;;;;;;13.12;88.17;100136.15;110160;1233;72138;-72
2023/04/13 08:42:55;;;;;;;18.40;11.80;;;;;;;13.22;87.71;100134.05;110420;1235;61416;-73
2023/04/13 08:45:24;;;;;;;18.30;12.40;;;;;;;13.23;88.15;100133.02;110297;1235;63694;-72
2023/04/13 08:47:56;;;;;;;12.40;9.50;;;;;;;13.30;88.34;100132.57;110369;1235;61840;-72
2023/04/13 08:50:26;;;;;;;12.50;9.30;;;;;;;13.33;85.86;100131.79;110118;1235;58520;-71
2023/04/13 08:52:56;;;;;;;13.30;7.90;;;;;;;13.38;85.87;100128.73;110069;1235;73547;-72
2023/04/13 08:55:25;;;;;;;13.90;8.20;;;;;;;13.53;84.17;100126.62;110243;1239;60960;-71
2023/04/13 08:57:57;;;;;;;10.70;8.60;;;;;;;13.61;84.75;100123.77;110052;1235;60315;-71
2023/04/13 09:00:27;;;;;;;10.40;6.10;;;;;;;13.63;83.78;100129.34;110135;1235;73867;-71
2023/04/13 09:03:01;;;;;;;9.60;7.10;;;;;;;13.63;82.39;100125.14;110224;1238;58290;-71
2023/04/13 09:05:40;;;;;;;9.00;7.10;;;;;;;13.63;82.94;100124.95;110103;1236;61928;-72
2023/04/13 09:08:12;;;;;;;10.60;8.00;;;;;;;13.62;82.30;100128.58;110233;1235;74492;-71
2023/04/13 09:10:42;;;;;;;13.00;7.10;;;;;;;13.64;83.59;100124.39;109715;1235;338095;-72
2023/04/13 09:13:11;;;;;;;10.10;7.20;;;;;;;13.73;82.14;100127.51;110002;1235;70071;-73
2023/04/13 09:15:41;;;;;;;11.90;7.40;;;;;;;13.85;81.58;100127.13;110208;1237;63963;-71
2023/04/13 09:18:17;;;;;;;8.00;6.50;;;;;;;13.98;81.56;100128.42;110247;1238;61274;-73
2023/04/13 09:21:00;;;;;;;9.80;6.00;;;;;;;14.24;79.48;100124.54;110185;1235;60787;-72
2023/04/13 09:23:29;;;;;;;7.50;4.90;;;;;;;14.34;77.09;100122.92;110294;1235;74016;-71
2023/04/13 09:26:08;;;;;;;10.90;6.40;;;;;;;14.24;76.78;100105.42;110343;1234;71650;-72
2023/04/13 09:28:48;;;;;;;9.30;6.60;;;;;;;14.06;77.87;100111.54;110321;1235;59971;-73
2023/04/13 09:31:23;;;;;;;7.70;5.40;;;;;;;14.16;79.05;100118.02;110108;1235;74471;-71
2023/04/13 09:33:52;;;;;;;9.90;7.00;;;;;;;14.17;79.60;100114.55;110376;1234;61605;-72
2023/04/13 09:36:21;;;;;;;9.10;7.20;;;;;;;14.10;79.55;100116.25;110269;1236;60143;-71
2023/04/13 09:38:56;;;;;;;11.70;7.30;;;;;;;14.38;79.76;100100.58;110173;1235;72523;-71
2023/04/13 09:41:33;;;;;;;9.00;6.20;;;;;;;14.74;78.63;100100.41;110101;1238;61380;-72
2023/04/13 09:44:16;;;;;;;9.00;6.60;;;;;;;14.80;76.39;100100.13;110289;1235;60421;-72
2023/04/13 09:47:00;;;;;;;14.50;8.30;;;;;;;14.71;76.38;100097.36;110148;1239;63468;-71
2023/04/13 09:49:42;;;;;;;9.80;7.10;;;;;;;14.62;76.45;100099.33;110044;1235;58311;-73
2023/04/13 09:52:22;;;;;;;13.90;8.30;;;;;;;14.85;77.81;100100.02;110199;1235;58552;-72
2023/04/13 09:54:59;;;;;;;12.50;8.00;;;;;;;14.89;76.79;100104.71;110086;1235;74202;-72
2023/04/13 09:57:31;;;;;;;11.30;8.50;;;;;;;14.64;77.59;100101.02;110131;1235;72502;-73
2023/04/13 10:00:00;;;;;;;10.20;8.40;;;;;;;14.63;78.11;100099.88;110321;1234;59632;-72
2023/04/13 10:02:40;;;;;;;10.70;8.30;;;;;;;14.78;78.01;100101.54;110063;1235;74523;-72
2023/04/13 10:05:10;;;;;;;9.90;7.30;;;;;;;14.82;76.50;100108.30;110301;1236;57869;-72
2023/04/13 10:07:43;;;;;;;9.00;7.00;;;;;;;14.84;75.91;100100.50;110179;1235;57796;-72
2023/04/13 10:10:12;;;;;;;11.90;7.90;;;;;;;14.73;76.81;100114.52;110140;1235;74468;-71
2023/04/13 10:12:54;;;;;;;10.00;7.00;;;;;;;14.59;76.43;100110.92;110140;1234;72612;-71
2023/04/13 10:15:56;;;;;;;9.50;7.30;;;;;;;14.88;75.07;100109.54;110175;1239;60349;-72
2023/04/13 10:18:48;;;;;;;11.20;7.40;;;;;;;15.17;74.78;100105.71;110135;1233;73849;-72
2023/04/13 10:21:18;;;;;;;9.90;7.10;;;;;;;15.28;74.91;100114.20;110249;1236;58392;-72
2023/04/13 10:23:46;;;;;;;8.40;6.60;;;;;;;15.26;74.25;100109.75;110113;1234;61224;-71
2023/04/13 10:26:16;;;;;;;10.20;7.70;;;;;;;15.36;72.99;100107.27;110227;1234;63578;-71
2023/04/13 10:28:47;;;;;;;10.30;7.70;;;;;;;15.20;73.46;100115.44;110353;1234;72056;-71
2023/04/13 10:31:17;;;;;;;10.50;7.80;;;;;;;15.28;73.51;100111.08;110500;1235;71497;-71
2023/04/13 10:33:50;;;;;;;10.20;8.00;;;;;;;15.11;72.84;100110.20;110454;1236;63565;-72
2023/04/13 10:36:19;;;;;;;10.50;7.50;;;;;;;15.23;73.50;100109.52;110358;1235;60363;-71
2023/04/13 10:38:47;;;;;;;12.30;7.40;;;;;;;15.65;72.10;100108.52;110315;1235;61186;-73
2023/04/13 10:41:24;;;;;;;11.10;7.90;;;;;;;15.85;71.89;100100.55;110224;1238;64331;-71
2023/04/13 10:44:06;;;;;;;10.20;7.30;;;;;;;15.78;71.60;100108.10;110325;1235;71207;-71
2023/04/13 10:46:36;;;;;;;10.90;7.40;;;;;;;15.60;69.85;100102.37;110231;1235;59653;-72
2023/04/13 10:49:06;;;;;;;9.30;7.20;;;;;;;15.68;69.98;100111.45;110154;1238;63435;-72
2023/04/13 10:51:44;;;;;;;10.20;7.50;;;;;;;15.46;69.85;100110.16;110108;1238;60377;-73
2023/04/13 10:54:13;;;;;;;10.80;8.40;;;;;;;15.33;70.64;100115.11;110118;1235;58433;-72
2023/04/13 10:56:43;;;;;;;13.00;8.10;;;;;;;15.29;71.56;100113.82;110323;1236;63741;-72
2023/04/13 10:59:12;;;;;;;14.80;8.90;;;;;;;15.26;71.33;100115.67;110450;1236;62394;-72
2023/04/13 11:01:41;;;;;;;11.50;8.40;;;;;;;15.44;71.11;100112.15;110501;1234;68563;-72
2023/04/13 11:04:10;;;;;;;11.00;7.90;;;;;;;15.59;70.99;100107.77;110444;1235;74289;-71
2023/04/13 11:06:45;;;;;;;11.30;8.30;;;;;;;15.82;68.95;100111.67;110447;1235;58161;-72
2023/04/13 11:09:14;;;;;;;13.20;8.70;;;;;;;15.92;68.09;100106.49;110209;1234;61312;-74
2023/04/13 11:11:50;;;;;;;10.50;8.00;;;;;;;15.99;68.63;100102.90;110479;1235;65240;-72
2023/04/13 11:14:21;;;;;;;10.50;7.80;;;;;;;15.93;68.71;100107.61;110444;1233;61596;-72
2023/04/13 11:16:50;;;;;;;9.90;8.30;;;;;;;15.72;67.84;100112.02;110307;1237;59251;-73
2023/04/13 11:19:25;;;;;;;10.10;6.80;;;;;;;15.89;67.56;100107.98;110458;1236;63070;-73
2023/04/13 11:21:58;;;;;;;10.40;7.70;;;;;;;15.94;65.58;100109.05;110341;1235;61295;-73
2023/04/13 11:24:33;;;;;;;11.40;7.80;;;;;;;15.94;65.82;100108.91;110286;1234;58201;-73
2023/04/13 11:27:02;;;;;;;11.60;7.70;;;;;;;15.77;66.15;100111.16;110309;1234;73564;-73
2023/04/13 11:29:31;;;;;;;8.90;7.60;;;;;;;15.86;65.29;100114.25;110386;1234;62366;-73